Aeroporto :
LOGIN :

Iscrizione | Disclaimer

   EN    FR    IT 

 










Sommario :    VFR   VFR Marginale   IFR   IFR Intensivo   IFR Molto Intensivo
Visibilità : 
Base nubi : 
>= 8 km
>= 3000ft
5 / 8 km
1000 / 3000 ft
1500m / 5 km
500 / 1000 ft
800 / 1500m
200 / 500 ft
< 800m
< 200 ft
Simboli :   Temporali  Nebbia  Neve Forte  Precipitazioni Forti  Vento > 20 kt
SIGMETs :   Varie  Temporali  Ghiacco  Turbolenza  Onda orograficha  Ceneri Vulcaniche







- Altitudine del aeroporto : 25 ft
- Codice IATA : QCY


EGXC - RAF Coningsby

ULTIMO METAR :
  • 270350Z 03006KT 9999 BKN014 11/09 Q1032 RMK GRN

METARs OBSOLETI :
  • 270250Z 02006KT 9999 BKN016 11/09 Q1031 RMK WHT
  • 270150Z 03006KT 9999 SCT015 11/09 Q1031 RMK WHT

TAF TAF EGXC
Valido dal 27 a 03 ore il 27 a 21 ore UTC


270150Z 2703/2721 04010KT 9999 BKN014
PROB30
TEMPO 2703/2708 BKN016
BECMG 2708/2711 BKN016
PROB30
TEMPO 2711/2718 FEW016
BECMG 2718/2721 BKN012
Nessun NOTAM noto per questo aeroporto.
2 SIGMETs conosciuti per la FIR London (EGTT) :
 
Temporali affogati
EGTT SIGMET 05 VALID 270400/270700 EGRR
EGTT LONDON FIR EMBD TS FCST WI N4850 W00800 - N5008 W00800 - N4947 W00659 - N4909 W00628 - N4908 W00629 - N4850 W00800 TOP FL380 MOV NW 20KT NC=
Turbolenza severa
EGTT SIGMET 04 VALID 270400/270800 EGRR
EGTT LONDON FIR SEV TURB FCST WI N5003 W00353 - N4944 W00627 - N5013 W00629 - N5057 W00416 - N5003 W00353 SFC/FL060 STNR WKN=



MetMap, La meteo Aeronautica in un colpo d'occhio ! - Copyright ORBIFLY Dicembre 2007 - Disclaimer

ORBIFLY MET'MAP TEAM :

Programmazione e sviluppo : Alexandra Zaïnal
Concezione e sviluppo : Baudouin d'Aumeries
Co-Programmazione e sviluppo : Marc-Olivier Méhu
Supporto tecnico e logistico : Manuel Goepfert
Aiuto per la traduzione : Arnaldo La Scala

Contatto : metmap@orbifly.com




FONTI E CREDITI :

   NOAA